createdAt,value
2017-04-10T00:00:18.353Z,99.99
2017-04-10T00:01:18.343Z,99.99
2017-04-10T00:02:18.323Z,99.99
2017-04-10T00:03:18.308Z,99.99
2017-04-10T00:04:18.290Z,99.99
2017-04-10T00:05:18.278Z,99.99
2017-04-10T00:06:18.264Z,99.99
2017-04-10T00:07:17.944Z,99.99
2017-04-10T00:08:18.237Z,99.99
2017-04-10T00:09:18.217Z,99.99
2017-04-10T00:10:18.201Z,99.99
2017-04-10T00:11:18.186Z,99.99
2017-04-10T00:12:18.172Z,99.99
2017-04-10T00:13:18.155Z,99.99
2017-04-10T00:14:18.139Z,99.99
2017-04-10T00:15:18.125Z,99.99
2017-04-10T00:16:18.106Z,99.99
2017-04-10T00:17:18.096Z,99.99
2017-04-10T00:18:17.776Z,99.99
2017-04-10T00:19:18.060Z,99.99
2017-04-10T00:20:18.047Z,99.99
2017-04-10T00:21:18.032Z,99.99
2017-04-10T00:22:17.715Z,99.99
2017-04-10T00:23:18.003Z,99.99
2017-04-10T00:24:17.689Z,99.99
2017-04-10T00:25:17.968Z,99.99
2017-04-10T00:26:17.954Z,99.99
2017-04-10T00:27:17.939Z,99.99
2017-04-10T00:28:17.925Z,99.99
2017-04-10T00:29:17.908Z,99.99
2017-04-10T00:30:17.895Z,99.99
2017-04-10T00:31:17.880Z,99.99
2017-04-10T00:32:17.861Z,99.99
2017-04-10T00:33:17.848Z,99.99
2017-04-10T00:34:17.833Z,99.99
2017-04-10T00:35:17.816Z,99.99
2017-04-10T00:36:17.803Z,99.99
2017-04-10T00:37:17.787Z,99.99
2017-04-10T00:38:17.773Z,99.99
2017-04-10T00:39:17.759Z,99.99
2017-04-10T00:40:17.742Z,99.99
2017-04-10T00:41:17.726Z,99.99
2017-04-10T00:42:17.708Z,99.99
2017-04-10T00:43:17.696Z,99.99
2017-04-10T00:44:17.679Z,99.99
2017-04-10T00:45:17.662Z,99.99
2017-04-10T00:46:17.649Z,99.99
2017-04-10T00:47:17.633Z,99.99
2017-04-10T00:48:17.617Z,99.99
2017-04-10T00:49:17.601Z,99.99
2017-04-10T00:50:17.589Z,99.99
2017-04-10T00:51:17.574Z,99.99
2017-04-10T00:52:17.557Z,99.99
2017-04-10T00:53:17.542Z,99.99
2017-04-10T00:54:17.524Z,99.99
2017-04-10T00:55:17.510Z,99.99
2017-04-10T00:56:17.495Z,99.99
2017-04-10T00:57:17.479Z,99.99
2017-04-10T00:58:17.464Z,99.99
2017-04-10T00:59:17.450Z,99.99
2017-04-10T01:00:17.433Z,99.99
2017-04-10T01:01:17.417Z,99.99
2017-04-10T01:02:17.098Z,99.99
2017-04-10T01:03:17.088Z,99.99
2017-04-10T01:04:17.374Z,99.99
2017-04-10T01:05:17.359Z,99.99
2017-04-10T01:06:17.341Z,99.99
2017-04-10T01:07:17.329Z,99.99
2017-04-10T01:08:17.311Z,99.99
2017-04-10T01:09:17.297Z,99.99
2017-04-10T01:10:17.281Z,99.99
2017-04-10T01:11:16.962Z,99.99
2017-04-10T01:12:17.246Z,99.99
2017-04-10T01:13:17.235Z,99.99
2017-04-10T01:14:17.215Z,99.99
2017-04-10T01:15:17.200Z,99.99
2017-04-10T01:16:17.183Z,99.99
2017-04-10T01:17:17.171Z,99.99
2017-04-10T01:18:17.159Z,99.99
2017-04-10T01:19:16.840Z,99.99
2017-04-10T01:20:16.823Z,99.99
2017-04-10T01:21:17.111Z,99.99
2017-04-10T01:22:17.095Z,99.99
2017-04-10T01:23:17.081Z,99.99
2017-04-10T01:24:17.063Z,99.99
2017-04-10T01:25:17.047Z,99.99
2017-04-10T01:26:17.034Z,99.99
2017-04-10T01:27:17.015Z,99.99
2017-04-10T01:28:17.002Z,99.99
2017-04-10T01:29:16.989Z,99.99
2017-04-10T01:30:16.979Z,99.99
2017-04-10T01:31:16.957Z,99.99
2017-04-10T01:32:16.943Z,99.99
2017-04-10T01:33:16.925Z,99.99
2017-04-10T01:34:16.913Z,99.99
2017-04-10T01:35:16.894Z,99.99
2017-04-10T01:36:16.881Z,99.99
2017-04-10T01:37:16.866Z,99.99
2017-04-10T01:38:16.853Z,99.99
2017-04-10T01:39:16.836Z,99.99
2017-04-10T01:40:16.821Z,99.99
2017-04-10T01:41:16.803Z,99.99
2017-04-10T01:42:16.787Z,99.99
2017-04-10T01:43:16.771Z,99.99
2017-04-10T01:44:16.761Z,99.99
2017-04-10T01:45:16.750Z,99.99
2017-04-10T01:46:16.727Z,99.99
2017-04-10T01:47:16.713Z,99.99
2017-04-10T01:48:16.694Z,99.99
2017-04-10T01:49:16.684Z,99.99
2017-04-10T01:50:16.666Z,99.99
2017-04-10T01:51:16.651Z,99.99
2017-04-10T01:52:16.634Z,99.99
2017-04-10T01:53:16.618Z,99.99
2017-04-10T01:54:16.303Z,99.99
2017-04-10T01:55:16.591Z,99.99
2017-04-10T01:56:16.570Z,99.99
2017-04-10T01:57:16.560Z,99.99
2017-04-10T01:58:16.540Z,99.99
2017-04-10T01:59:16.527Z,99.99
2017-04-10T02:00:16.510Z,99.99
2017-04-10T02:01:16.491Z,99.99
2017-04-10T02:02:16.479Z,99.99
2017-04-10T02:03:16.463Z,99.99
2017-04-10T02:04:16.451Z,99.99
2017-04-10T02:05:16.433Z,99.99
2017-04-10T02:06:16.419Z,99.99
2017-04-10T02:07:16.402Z,99.99
2017-04-10T02:08:16.386Z,99.99
2017-04-10T02:09:16.372Z,99.99
2017-04-10T02:10:16.358Z,99.99
2017-04-10T02:11:16.342Z,99.99
2017-04-10T02:12:16.323Z,99.99
2017-04-10T02:13:16.320Z,99.99
2017-04-10T02:14:16.294Z,99.99
2017-04-10T02:15:16.277Z,99.99
2017-04-10T02:16:16.264Z,99.99
2017-04-10T02:17:16.247Z,99.99
2017-04-10T02:18:16.234Z,99.99
2017-04-10T02:19:16.219Z,99.99
2017-04-10T02:20:16.199Z,99.99
2017-04-10T02:21:16.189Z,99.99
2017-04-10T02:22:16.170Z,99.99
2017-04-10T02:23:16.154Z,99.99
2017-04-10T02:24:16.141Z,99.99
2017-04-10T02:25:16.123Z,99.99
2017-04-10T02:26:16.111Z,99.99
2017-04-10T02:27:16.095Z,99.99
2017-04-10T02:28:16.082Z,99.99
2017-04-10T02:29:16.064Z,99.99
2017-04-10T02:30:16.045Z,99.99
2017-04-10T02:31:16.039Z,99.99
2017-04-10T02:32:16.014Z,99.99
2017-04-10T02:33:16.002Z,99.99
2017-04-10T02:34:15.986Z,99.99
2017-04-10T02:35:16.011Z,99.99
2017-04-10T02:36:15.955Z,99.99
2017-04-10T02:37:15.937Z,99.99
2017-04-10T02:38:15.921Z,99.99
2017-04-10T02:39:15.909Z,99.99
2017-04-10T02:40:15.891Z,99.99
2017-04-10T02:41:15.875Z,99.99
2017-04-10T02:42:15.860Z,99.99
2017-04-10T02:43:15.848Z,99.99
2017-04-10T02:44:15.831Z,99.99
2017-04-10T02:45:15.817Z,99.99
2017-04-10T02:46:15.795Z,99.99
2017-04-10T02:47:15.782Z,99.99
2017-04-10T02:48:15.767Z,99.99
2017-04-10T02:49:15.753Z,99.99
2017-04-10T02:50:15.738Z,99.99
2017-04-10T02:51:15.717Z,99.99
2017-04-10T02:52:15.703Z,99.99
2017-04-10T02:53:15.388Z,99.99
2017-04-10T02:54:15.670Z,99.99
2017-04-10T02:55:15.656Z,99.99
2017-04-10T02:56:15.643Z,99.99
2017-04-10T02:57:15.626Z,99.99
2017-04-10T02:58:15.609Z,99.99
2017-04-10T02:59:15.594Z,99.99
2017-04-10T03:00:15.581Z,99.99
2017-04-10T03:01:15.562Z,99.99
2017-04-10T03:02:15.548Z,99.99
2017-04-10T03:03:15.534Z,99.99
2017-04-10T03:04:15.516Z,99.99
2017-04-10T03:05:15.499Z,99.99
2017-04-10T03:06:15.486Z,99.99
2017-04-10T03:07:15.474Z,99.99
2017-04-10T03:08:15.455Z,99.99
2017-04-10T03:09:15.440Z,99.99
2017-04-10T03:10:15.424Z,99.99
2017-04-10T03:11:15.406Z,99.99
2017-04-10T03:12:15.392Z,99.99
2017-04-10T03:13:15.375Z,99.99
2017-04-10T03:14:15.362Z,99.99
2017-04-10T03:15:15.344Z,99.99
2017-04-10T03:16:15.338Z,99.99
2017-04-10T03:17:15.016Z,99.99
2017-04-10T03:18:15.296Z,99.99
2017-04-10T03:19:15.282Z,99.99
2017-04-10T03:20:15.266Z,99.99
2017-04-10T03:21:15.247Z,99.99
2017-04-10T03:22:15.233Z,99.99
2017-04-10T03:23:15.218Z,99.99
2017-04-10T03:24:15.210Z,99.99
2017-04-10T03:25:15.189Z,99.99
2017-04-10T03:26:15.176Z,99.99
2017-04-10T03:27:15.154Z,99.99
2017-04-10T03:28:15.140Z,99.99
2017-04-10T03:29:15.124Z,99.99
2017-04-10T03:30:15.111Z,99.99
2017-04-10T03:31:15.091Z,99.99
2017-04-10T03:32:15.072Z,99.99
2017-04-10T03:33:15.059Z,99.99
2017-04-10T03:34:15.045Z,99.99
2017-04-10T03:35:15.028Z,99.99
2017-04-10T03:36:15.014Z,99.99
2017-04-10T03:37:15.000Z,99.99
2017-04-10T03:38:14.981Z,99.99
2017-04-10T03:39:14.965Z,99.99
2017-04-10T03:40:14.987Z,99.99
2017-04-10T03:41:14.935Z,99.99
2017-04-10T03:42:14.917Z,99.99
2017-04-10T03:43:14.902Z,99.99
2017-04-10T03:44:14.885Z,99.99
2017-04-10T03:45:14.868Z,99.99
2017-04-10T03:46:14.855Z,99.99
2017-04-10T03:47:14.836Z,99.99
2017-04-10T03:48:14.819Z,99.99
2017-04-10T03:49:14.806Z,99.99
2017-04-10T03:50:14.791Z,99.99
2017-04-10T03:51:14.775Z,99.99
2017-04-10T03:52:14.756Z,99.99
2017-04-10T03:53:14.743Z,99.99
2017-04-10T03:54:14.728Z,99.99
2017-04-10T03:55:14.713Z,99.99
2017-04-10T03:56:14.696Z,99.99
2017-04-10T03:57:14.680Z,99.99
2017-04-10T03:58:14.665Z,99.99
2017-04-10T03:59:14.647Z,99.99
2017-04-10T04:00:14.635Z,99.99
2017-04-10T04:01:14.616Z,99.99
2017-04-10T04:02:14.598Z,99.99
2017-04-10T04:03:14.585Z,99.99
2017-04-10T04:04:14.569Z,99.99
2017-04-10T04:05:14.557Z,99.99
2017-04-10T04:06:14.537Z,99.99
2017-04-10T04:07:14.524Z,99.99
2017-04-10T04:08:14.546Z,99.99
2017-04-10T04:09:14.488Z,99.99
2017-04-10T04:10:14.511Z,99.99
2017-04-10T04:11:14.457Z,99.99
2017-04-10T04:12:14.440Z,99.99
2017-04-10T04:13:14.430Z,99.99
2017-04-10T04:14:14.409Z,99.99
2017-04-10T04:15:14.391Z,99.99
2017-04-10T04:16:14.378Z,99.99
2017-04-10T04:17:14.363Z,99.99
2017-04-10T04:18:14.346Z,99.99
2017-04-10T04:19:14.329Z,99.99
2017-04-10T04:20:14.312Z,99.99
2017-04-10T04:21:14.297Z,99.99
2017-04-10T04:22:13.980Z,99.99
2017-04-10T04:23:14.265Z,99.99
2017-04-10T04:24:14.251Z,99.99
2017-04-10T04:25:14.235Z,99.99
2017-04-10T04:26:14.216Z,99.99
2017-04-10T04:27:14.201Z,99.99
2017-04-10T04:28:14.185Z,99.99
2017-04-10T04:29:14.172Z,99.99
2017-04-10T04:30:14.153Z,99.99
2017-04-10T04:31:14.135Z,99.99
2017-04-10T04:32:14.120Z,99.99
2017-04-10T04:33:14.107Z,99.99
2017-04-10T04:34:14.091Z,99.99
2017-04-10T04:35:14.077Z,99.99
2017-04-10T04:36:14.056Z,99.99
2017-04-10T04:37:14.041Z,99.99
2017-04-10T04:38:14.028Z,99.99
2017-04-10T04:39:14.010Z,99.99
2017-04-10T04:40:14.000Z,99.99
2017-04-10T04:41:13.981Z,99.99
2017-04-10T04:42:13.962Z,99.99
2017-04-10T04:43:13.949Z,99.99
2017-04-10T04:44:13.933Z,99.99
2017-04-10T04:45:13.916Z,99.99
2017-04-10T04:46:13.904Z,99.99
2017-04-10T04:47:13.887Z,99.99
2017-04-10T04:48:13.867Z,99.99
2017-04-10T04:49:13.859Z,99.99
2017-04-10T04:50:13.838Z,99.99
2017-04-10T04:51:13.826Z,99.99
2017-04-10T04:52:13.812Z,99.99
2017-04-10T04:53:13.790Z,99.99
2017-04-10T04:54:13.776Z,99.99
2017-04-10T04:55:13.763Z,99.99
2017-04-10T04:56:13.745Z,99.99
2017-04-10T04:57:13.760Z,99.99
2017-04-10T04:58:13.712Z,99.99
2017-04-10T04:59:13.697Z,99.99
2017-04-10T05:00:13.683Z,99.99
2017-04-10T05:01:13.665Z,99.99
2017-04-10T05:02:13.650Z,99.99
2017-04-10T05:03:13.633Z,99.99
2017-04-10T05:04:13.620Z,99.99
2017-04-10T05:05:13.606Z,99.99
2017-04-10T05:06:13.589Z,99.99
2017-04-10T05:07:13.572Z,99.99
2017-04-10T05:08:13.555Z,99.99
2017-04-10T05:09:13.544Z,99.99
2017-04-10T05:10:13.527Z,99.99
2017-04-10T05:11:13.513Z,99.99
2017-04-10T05:12:13.496Z,99.99
2017-04-10T05:13:13.478Z,99.99
2017-04-10T05:14:13.462Z,99.99
2017-04-10T05:15:13.460Z,99.99
2017-04-10T05:16:13.436Z,99.99
2017-04-10T05:17:13.420Z,99.99
2017-04-10T05:18:13.402Z,99.99
2017-04-10T05:19:13.390Z,99.99
2017-04-10T05:20:13.373Z,99.99
2017-04-10T05:21:13.366Z,99.99
2017-04-10T05:22:13.346Z,99.99
2017-04-10T05:23:13.329Z,99.99
2017-04-10T05:24:13.312Z,99.99
2017-04-10T05:25:13.299Z,99.99
2017-04-10T05:26:13.284Z,99.99
2017-04-10T05:27:13.270Z,99.99
2017-04-10T05:28:13.254Z,99.99
2017-04-10T05:29:13.236Z,99.99
2017-04-10T05:30:13.223Z,99.99
2017-04-10T05:31:13.208Z,99.99
2017-04-10T05:32:13.201Z,99.99
2017-04-10T05:33:13.179Z,99.99
2017-04-10T05:34:13.164Z,99.99
2017-04-10T05:35:13.153Z,99.99
2017-04-10T05:36:13.137Z,99.99
2017-04-10T05:37:13.121Z,99.99
2017-04-10T05:38:13.106Z,99.99
2017-04-10T05:39:13.098Z,99.99
2017-04-10T05:40:13.081Z,99.99
2017-04-10T05:41:13.062Z,99.99
2017-04-10T05:42:13.049Z,99.99
2017-04-10T05:43:13.039Z,99.99
2017-04-10T05:44:13.021Z,99.99
2017-04-10T05:45:13.009Z,99.99
2017-04-10T05:46:12.994Z,99.99
2017-04-10T05:47:12.980Z,99.99
2017-04-10T05:48:12.970Z,99.99
2017-04-10T05:49:12.950Z,99.99
2017-04-10T05:50:12.939Z,99.99
2017-04-10T05:51:12.922Z,99.99
2017-04-10T05:52:12.907Z,99.99
2017-04-10T05:53:12.900Z,99.99
2017-04-10T05:54:12.884Z,99.99
2017-04-10T05:55:12.869Z,99.99
2017-04-10T05:56:12.855Z,99.99
2017-04-10T05:57:12.841Z,99.99
2017-04-10T05:58:12.831Z,99.99
2017-04-10T05:59:12.814Z,99.99
2017-04-10T06:00:12.801Z,99.99
2017-04-10T06:01:12.487Z,99.99
2017-04-10T06:02:12.776Z,99.99
2017-04-10T06:03:12.762Z,99.99
2017-04-10T06:04:12.449Z,99.99
2017-04-10T06:05:12.731Z,99.99
2017-04-10T06:06:12.721Z,99.99
2017-04-10T06:07:12.709Z,99.99
2017-04-10T06:08:12.693Z,99.99
2017-04-10T06:09:12.679Z,99.99
2017-04-10T06:10:12.665Z,99.99
2017-04-10T06:11:12.650Z,99.99
2017-04-10T06:12:12.637Z,99.99
2017-04-10T06:13:12.625Z,99.99
2017-04-10T06:14:12.607Z,99.99
2017-04-10T06:15:12.593Z,99.99
2017-04-10T06:16:12.583Z,99.99
2017-04-10T06:17:12.566Z,99.99
2017-04-10T06:18:12.549Z,99.99
2017-04-10T06:19:12.536Z,99.99
2017-04-10T06:20:12.520Z,99.99
2017-04-10T06:21:12.507Z,99.99
2017-04-10T06:22:12.500Z,99.99
2017-04-10T06:23:12.476Z,99.99
2017-04-10T06:24:12.163Z,99.99
2017-04-10T06:25:12.449Z,99.99
2017-04-10T06:26:12.438Z,99.99
2017-04-10T06:27:12.419Z,99.99
2017-04-10T06:28:12.407Z,99.99
2017-04-10T06:29:12.393Z,99.99
2017-04-10T06:30:12.376Z,99.99
2017-04-10T06:31:12.366Z,99.99
2017-04-10T06:32:12.348Z,99.99
2017-04-10T06:33:12.336Z,99.99
2017-04-10T06:34:12.318Z,99.99
2017-04-10T06:35:12.307Z,99.99
2017-04-10T06:36:11.992Z,99.99
2017-04-10T06:37:12.281Z,99.99
2017-04-10T06:38:11.963Z,99.99
2017-04-10T06:39:11.953Z,99.99
2017-04-10T06:40:11.937Z,99.99
2017-04-10T06:41:11.924Z,99.99
2017-04-10T06:42:12.209Z,99.99
2017-04-10T06:43:12.208Z,99.99
2017-04-10T06:44:12.181Z,99.99
2017-04-10T06:45:12.171Z,99.99
2017-04-10T06:46:12.157Z,99.99
2017-04-10T06:47:12.144Z,99.99
2017-04-10T06:48:12.130Z,99.99
2017-04-10T06:49:12.117Z,99.99
2017-04-10T06:50:12.102Z,99.99
2017-04-10T06:51:12.087Z,99.99
2017-04-10T06:52:12.075Z,99.99
2017-04-10T06:53:11.766Z,99.99
2017-04-10T06:54:12.049Z,99.99
2017-04-10T06:55:12.037Z,99.99
2017-04-10T06:56:12.024Z,99.99
2017-04-10T06:57:12.012Z,99.99
2017-04-10T06:58:11.998Z,99.99
2017-04-10T06:59:11.986Z,99.99
2017-04-10T07:00:11.673Z,99.99
2017-04-10T07:01:11.659Z,99.99
2017-04-10T07:02:11.645Z,99.99
2017-04-10T07:03:11.639Z,99.99
2017-04-10T07:04:11.625Z,99.99
2017-04-10T07:05:11.912Z,99.99
2017-04-10T07:06:11.896Z,99.99
2017-04-10T07:07:11.923Z,99.99
2017-04-10T07:08:11.877Z,99.99
2017-04-10T07:09:11.860Z,99.99
2017-04-10T07:10:11.849Z,99.99
2017-04-10T07:11:11.831Z,99.99
2017-04-10T07:12:11.823Z,99.99
2017-04-10T07:13:11.809Z,99.99
2017-04-10T07:14:11.793Z,99.99
2017-04-10T07:15:11.984Z,99.99
2017-04-10T07:16:11.972Z,99.99
2017-04-10T07:17:11.759Z,99.99
2017-04-10T07:18:11.746Z,99.99
2017-04-10T07:19:11.731Z,99.99
2017-04-10T07:20:11.720Z,99.99
2017-04-10T07:21:11.721Z,99.99
2017-04-10T07:22:11.698Z,99.99
2017-04-10T07:23:11.689Z,99.99
2017-04-10T07:24:11.676Z,99.99
2017-04-10T07:25:11.666Z,99.99
2017-04-10T07:26:11.664Z,99.99
2017-04-10T07:27:11.339Z,99.99
2017-04-10T07:28:11.630Z,99.99
2017-04-10T07:29:11.614Z,99.99
2017-04-10T07:30:11.603Z,99.99
2017-04-10T07:31:11.288Z,99.99
2017-04-10T07:32:11.580Z,99.99
2017-04-10T07:33:11.563Z,99.99
2017-04-10T07:34:11.555Z,99.99
2017-04-10T07:35:11.547Z,99.99
2017-04-10T07:36:11.530Z,99.99
2017-04-10T07:37:11.515Z,99.99
2017-04-10T07:38:11.512Z,99.99
2017-04-10T07:39:11.497Z,99.99
2017-04-10T07:40:11.490Z,99.99
2017-04-10T07:41:11.471Z,99.99
2017-04-10T07:42:24.846Z,99.99
2017-04-10T07:43:11.450Z,99.99
2017-04-10T07:44:11.446Z,99.99
2017-04-10T07:45:11.424Z,99.99
2017-04-10T07:46:11.408Z,99.99
2017-04-10T07:47:11.396Z,99.99
2017-04-10T07:48:11.386Z,99.99
2017-04-10T07:49:11.373Z,99.99
2017-04-10T07:50:11.360Z,99.99
2017-04-10T07:51:11.550Z,99.99
2017-04-10T07:52:11.033Z,99.99
2017-04-10T07:53:11.018Z,99.99
2017-04-10T07:54:11.307Z,99.99
2017-04-10T07:55:11.293Z,99.99
2017-04-10T07:56:10.979Z,99.99
2017-04-10T07:57:11.265Z,99.99
2017-04-10T07:58:11.254Z,99.99
2017-04-10T07:59:11.239Z,99.99
2017-04-10T08:00:11.229Z,99.99
2017-04-10T08:01:11.217Z,99.99
2017-04-10T08:02:11.201Z,99.99
2017-04-10T08:03:11.186Z,99.99
2017-04-10T08:04:11.174Z,99.99
2017-04-10T08:05:11.158Z,99.99
2017-04-10T08:06:11.148Z,99.99
2017-04-10T08:07:11.135Z,99.99
2017-04-10T08:08:11.122Z,99.99
2017-04-10T08:09:11.106Z,99.99
2017-04-10T08:10:11.093Z,99.99
2017-04-10T08:11:11.119Z,99.99
2017-04-10T08:12:11.067Z,99.99
2017-04-10T08:13:11.055Z,99.99
2017-04-10T08:14:11.040Z,99.99
2017-04-10T08:15:11.028Z,99.99
2017-04-10T08:16:11.017Z,99.99
2017-04-10T08:17:24.399Z,99.99
2017-04-10T08:18:11.001Z,99.99
2017-04-10T08:19:10.983Z,99.99
2017-04-10T08:20:10.969Z,99.99
2017-04-10T08:21:10.957Z,99.99
2017-04-10T08:22:10.949Z,99.99
2017-04-10T08:23:10.934Z,99.99
2017-04-10T08:24:10.925Z,99.99
2017-04-10T08:25:10.919Z,99.99
2017-04-10T08:26:10.900Z,99.99
2017-04-10T08:27:11.094Z,99.99
2017-04-10T08:28:10.578Z,99.99
2017-04-10T08:29:10.868Z,99.99
2017-04-10T08:30:10.857Z,99.99
2017-04-10T08:31:10.846Z,99.99
2017-04-10T08:32:10.837Z,99.99
2017-04-10T08:33:10.825Z,99.99
2017-04-10T08:34:10.821Z,99.99
2017-04-10T08:35:10.805Z,99.99
2017-04-10T08:36:10.802Z,99.99
2017-04-10T08:37:10.786Z,99.99
2017-04-10T08:38:10.771Z,99.99
2017-04-10T08:39:10.760Z,99.99
2017-04-10T08:40:10.751Z,99.99
2017-04-10T08:41:10.740Z,99.99
2017-04-10T08:42:10.726Z,99.99
2017-04-10T08:43:10.721Z,99.99
2017-04-10T08:44:10.709Z,99.99
2017-04-10T08:45:10.699Z,99.99
2017-04-10T08:46:10.689Z,99.99
2017-04-10T08:47:10.678Z,99.99
2017-04-10T08:48:10.668Z,99.99
2017-04-10T08:49:10.657Z,99.99
2017-04-10T08:50:10.649Z,99.99
2017-04-10T08:51:10.639Z,99.99
2017-04-10T08:52:10.828Z,99.99
2017-04-10T08:53:10.617Z,99.99
2017-04-10T08:54:10.602Z,99.99
2017-04-10T08:55:10.597Z,99.99
2017-04-10T08:56:10.587Z,99.99
2017-04-10T08:57:10.576Z,99.99
2017-04-10T08:58:10.777Z,99.99
2017-04-10T08:59:10.557Z,99.99
2017-04-10T09:00:10.545Z,99.99
2017-04-10T09:01:10.534Z,99.99
2017-04-10T09:02:10.529Z,99.99
2017-04-10T09:03:10.517Z,99.99
2017-04-10T09:04:10.505Z,99.99
2017-04-10T09:05:10.497Z,99.99
2017-04-10T09:06:10.484Z,99.99
2017-04-10T09:07:10.474Z,99.99
2017-04-10T09:08:10.465Z,99.99
2017-04-10T09:09:10.456Z,99.99
2017-04-10T09:10:10.444Z,99.99
2017-04-10T09:11:10.433Z,99.99
2017-04-10T09:12:10.427Z,99.99
2017-04-10T09:13:10.413Z,99.99
2017-04-10T09:14:10.401Z,99.99
2017-04-10T09:15:10.389Z,99.99
2017-04-10T09:16:10.382Z,99.99
2017-04-10T09:17:10.370Z,99.99
2017-04-10T09:18:10.358Z,99.99
2017-04-10T09:19:10.347Z,99.99
2017-04-10T09:20:10.334Z,99.99
2017-04-10T09:21:10.326Z,99.99
2017-04-10T09:22:10.314Z,99.99
2017-04-10T09:23:10.304Z,99.99
2017-04-10T09:24:10.289Z,99.99
2017-04-10T09:25:10.283Z,99.99
2017-04-10T09:26:10.267Z,99.99
2017-04-10T09:27:10.257Z,99.99
2017-04-10T09:28:10.245Z,99.99
2017-04-10T09:29:10.235Z,99.99
2017-04-10T09:30:10.258Z,99.99
2017-04-10T09:31:10.212Z,99.99
2017-04-10T09:33:10.190Z,99.99
2017-04-10T09:34:10.177Z,99.99
2017-04-10T09:35:10.164Z,99.99
2017-04-10T09:36:10.159Z,99.99
2017-04-10T09:37:10.147Z,99.99
2017-04-10T09:38:10.131Z,99.99
2017-04-10T09:39:10.121Z,99.99
2017-04-10T09:40:10.110Z,99.99
2017-04-10T09:41:10.096Z,99.99
2017-04-10T09:42:10.089Z,99.99
2017-04-10T09:43:10.078Z,99.99
2017-04-10T09:44:10.068Z,99.99
2017-04-10T09:45:10.059Z,99.99
2017-04-10T09:46:10.058Z,99.99
2017-04-10T09:47:10.038Z,99.99
2017-04-10T09:48:10.028Z,99.99
2017-04-10T09:49:10.027Z,99.99
2017-04-10T09:50:10.015Z,99.99
2017-04-10T09:51:09.702Z,99.99
2017-04-10T09:52:09.993Z,99.99
2017-04-10T09:53:09.693Z,99.99
2017-04-10T09:54:09.979Z,99.99
2017-04-10T09:55:09.970Z,99.99
2017-04-10T09:56:09.958Z,99.99
2017-04-10T09:57:09.954Z,99.99
2017-04-10T09:58:09.947Z,99.99
2017-04-10T09:59:09.938Z,99.99
2017-04-10T10:00:09.930Z,99.99
2017-04-10T10:01:09.919Z,99.99
2017-04-10T10:02:09.611Z,99.99
2017-04-10T10:03:09.901Z,99.99
2017-04-10T10:04:09.896Z,99.99
2017-04-10T10:05:09.890Z,99.99
2017-04-10T10:06:09.577Z,99.99
2017-04-10T10:07:09.873Z,99.99
2017-04-10T10:08:09.864Z,99.99
2017-04-10T10:09:09.855Z,99.99
2017-04-10T10:10:09.846Z,99.99
2017-04-10T10:11:09.840Z,99.99
2017-04-10T10:12:09.533Z,99.99
2017-04-10T10:13:09.825Z,99.94
2017-04-10T10:14:09.819Z,99.89
2017-04-10T10:15:09.810Z,99.99
2017-04-10T10:16:09.802Z,99.99
2017-04-10T10:17:09.792Z,99.99
2017-04-10T10:18:09.482Z,99.99
2017-04-10T10:19:09.774Z,99.99
2017-04-10T10:20:09.470Z,99.99
2017-04-10T10:21:09.759Z,99.99
2017-04-10T10:22:09.752Z,99.99
2017-04-10T10:23:09.745Z,99.99
2017-04-10T10:24:09.435Z,99.99
2017-04-10T10:25:09.730Z,99.99
2017-04-10T10:26:09.718Z,99.99
2017-04-10T10:27:09.712Z,99.98
2017-04-10T10:28:09.700Z,99.99
2017-04-10T10:29:09.694Z,99.99
2017-04-10T10:30:09.685Z,99.99
2017-04-10T10:31:09.675Z,99.99
2017-04-10T10:32:09.366Z,99.99
2017-04-10T10:33:09.659Z,99.99
2017-04-10T10:34:09.352Z,99.99
2017-04-10T10:35:09.638Z,99.99
2017-04-10T10:36:09.630Z,99.99
2017-04-10T10:37:09.321Z,99.99
2017-04-10T10:38:09.312Z,99.99
2017-04-10T10:39:09.299Z,99.99
2017-04-10T10:40:09.593Z,99.99
2017-04-10T10:41:09.583Z,99.99
2017-04-10T10:42:09.569Z,99.99
2017-04-10T10:43:09.259Z,99.99
2017-04-10T10:44:09.552Z,99.99
2017-04-10T10:45:09.543Z,99.99
2017-04-10T10:46:09.529Z,99.99
2017-04-10T10:47:09.518Z,99.99
2017-04-10T10:48:09.509Z,99.99
2017-04-10T10:49:09.496Z,99.99
2017-04-10T10:50:09.185Z,99.99
2017-04-10T10:51:09.479Z,99.99
2017-04-10T10:52:09.467Z,99.99
2017-04-10T10:53:09.455Z,99.99
2017-04-10T10:54:09.447Z,99.99
2017-04-10T10:55:09.137Z,99.99
2017-04-10T10:56:09.428Z,99.99
2017-04-10T10:57:09.418Z,99.99
2017-04-10T10:58:09.403Z,99.99
2017-04-10T10:59:09.397Z,99.99
2017-04-10T11:00:09.386Z,99.99
2017-04-10T11:01:09.374Z,99.99
2017-04-10T11:02:09.371Z,99.99
2017-04-10T11:03:09.357Z,99.99
2017-04-10T11:04:09.347Z,99.99
2017-04-10T11:05:09.341Z,99.99
2017-04-10T11:06:09.029Z,99.99
2017-04-10T11:07:09.331Z,99.99
2017-04-10T11:08:09.316Z,99.99
2017-04-10T11:09:09.308Z,99.99
2017-04-10T11:10:08.997Z,99.75
2017-04-10T11:11:09.292Z,99.99
2017-04-10T11:12:09.283Z,99.99
2017-04-10T11:13:08.971Z,99.42
2017-04-10T11:14:08.963Z,99.75
2017-04-10T11:15:09.254Z,99.99
2017-04-10T11:16:08.945Z,99.37
2017-04-10T11:17:09.242Z,99.46
2017-04-10T11:18:08.933Z,99.37
2017-04-10T11:19:08.926Z,98.99
2017-04-10T11:20:08.919Z,99.18
2017-04-10T11:21:08.912Z,99.27
2017-04-10T11:22:08.905Z,99.08
2017-04-10T11:23:08.899Z,98.99
2017-04-10T11:24:09.194Z,99.13
2017-04-10T11:25:08.884Z,99.08
2017-04-10T11:26:09.180Z,98.7
2017-04-10T11:27:08.869Z,98.27
2017-04-10T11:28:08.864Z,98.56
2017-04-10T11:29:08.859Z,98.41
2017-04-10T11:30:09.156Z,99.13
2017-04-10T11:31:08.845Z,99.08
2017-04-10T11:32:08.839Z,98.8
2017-04-10T11:33:09.139Z,98.57
2017-04-10T11:34:08.824Z,98.18
2017-04-10T11:35:09.120Z,98.37
2017-04-10T11:36:09.114Z,97.71
2017-04-10T11:37:08.805Z,97.46
2017-04-10T11:38:09.102Z,98.08
2017-04-10T11:39:08.794Z,97.79
2017-04-10T11:40:09.090Z,98.03
2017-04-10T11:41:08.781Z,98.13
2017-04-10T11:42:08.777Z,98.27
2017-04-10T11:43:08.769Z,97.89
2017-04-10T11:44:08.764Z,98.13
2017-04-10T11:45:09.058Z,97.85
2017-04-10T11:46:09.056Z,97.61
2017-04-10T11:47:08.745Z,97.47
2017-04-10T11:48:08.739Z,97.71
2017-04-10T11:49:08.733Z,97.61
2017-04-10T11:50:08.728Z,97.66
2017-04-10T11:51:09.023Z,97.08
2017-04-10T11:52:08.716Z,97.28
2017-04-10T11:53:09.014Z,96.7
2017-04-10T11:54:09.008Z,96.98
2017-04-10T11:55:09.003Z,96.51
2017-04-10T11:56:08.993Z,96.84
2017-04-10T11:57:08.995Z,96.27
2017-04-10T11:58:08.985Z,95.84
2017-04-10T11:59:08.983Z,95.7
2017-04-10T12:00:08.973Z,95.98
2017-04-10T12:01:08.967Z,96.8
2017-04-10T12:02:08.967Z,96.75
2017-04-10T12:03:08.956Z,95.98
2017-04-10T12:04:08.946Z,96.22
2017-04-10T12:05:08.943Z,96.36
2017-04-10T12:06:08.633Z,95.6
2017-04-10T12:07:08.628Z,95.08
2017-04-10T12:08:08.621Z,95.41
2017-04-10T12:09:08.612Z,95.55
2017-04-10T12:10:08.607Z,95.79
2017-04-10T12:11:08.597Z,96.03
2017-04-10T12:12:08.890Z,96.17
2017-04-10T12:13:08.581Z,96.08
2017-04-10T12:14:08.574Z,95.94
2017-04-10T12:15:08.867Z,96.12
2017-04-10T12:16:08.556Z,96.46
2017-04-10T12:17:08.852Z,96.36
2017-04-10T12:18:08.845Z,96.46
2017-04-10T12:19:08.533Z,96.22
2017-04-10T12:20:08.828Z,96.03
2017-04-10T12:21:08.823Z,96.27
2017-04-10T12:22:08.815Z,95.98
2017-04-10T12:23:08.501Z,96.17
2017-04-10T12:24:08.799Z,95.79
2017-04-10T12:25:08.788Z,94.6
2017-04-10T12:26:08.479Z,94.27
2017-04-10T12:27:08.771Z,94.79
2017-04-10T12:28:08.775Z,95.08
2017-04-10T12:29:08.752Z,95.08
2017-04-10T12:30:08.743Z,94.89
2017-04-10T12:31:08.746Z,94.79
2017-04-10T12:32:08.423Z,95.03
2017-04-10T12:33:08.720Z,94.93
2017-04-10T12:34:08.707Z,95.31
2017-04-10T12:35:08.701Z,95.94
2017-04-10T12:36:08.687Z,95.75
2017-04-10T12:37:08.674Z,95.84
2017-04-10T12:38:08.665Z,95.7
2017-04-10T12:39:08.662Z,95.6
2017-04-10T12:40:08.646Z,95.89
2017-04-10T12:41:08.641Z,95.75
2017-04-10T12:42:08.635Z,95.51
2017-04-10T12:43:08.621Z,95.65
2017-04-10T12:44:08.306Z,95.41
2017-04-10T12:45:08.610Z,95.51
2017-04-10T12:46:08.590Z,95.22
2017-04-10T12:47:08.594Z,95.12
2017-04-10T12:48:08.574Z,95.22
2017-04-10T12:49:08.575Z,95.56
2017-04-10T12:50:08.256Z,95.36
2017-04-10T12:51:08.555Z,95.56
2017-04-10T12:52:08.547Z,94.56
2017-04-10T12:53:08.527Z,94.56